Time;durP1;ratioP1;P1;durP2;ratioP2;P2;SDS_P1;SDS_P2;PMS_P1;PMS_P2;Temp;Humidity;BMP_temperature;BMP_pressure;BME280_temperature;BME280_humidity;BME280_pressure;Samples;Min_cycle;Max_cycle;Signal;HPM_P1;HPM_P2
2023/12/14 00:00:44;;;;;;;11.10;8.40;;;;;;;7.11;100.00;100724.34;4787176;30;20094;-66
2023/12/14 00:03:32;;;;;;;13.10;9.88;;;;;;;7.06;100.00;100737.81;4786790;30;20052;-65
2023/12/14 00:06:20;;;;;;;12.02;9.55;;;;;;;7.07;100.00;100742.19;4775214;30;20054;-67
2023/12/14 00:09:08;;;;;;;14.30;11.18;;;;;;;7.09;100.00;100750.84;4793205;29;20266;-65
2023/12/14 00:11:56;;;;;;;13.48;10.73;;;;;;;7.09;100.00;100753.56;4802317;29;20432;-66
2023/12/14 00:14:44;;;;;;;14.13;10.98;;;;;;;7.14;100.00;100767.19;4805414;29;20080;-66
2023/12/14 00:17:32;;;;;;;13.80;10.88;;;;;;;7.24;100.00;100770.06;4806121;29;20632;-65
2023/12/14 00:20:20;;;;;;;15.25;11.38;;;;;;;7.29;100.00;100782.03;4787994;29;20055;-65
2023/12/14 00:23:08;;;;;;;13.63;10.45;;;;;;;7.17;100.00;100785.69;4797677;29;20063;-66
2023/12/14 00:25:56;;;;;;;13.15;10.02;;;;;;;7.17;100.00;100799.22;4787329;30;20059;-66
2023/12/14 00:28:44;;;;;;;11.95;9.93;;;;;;;7.20;100.00;100796.03;4791077;29;20074;-67
2023/12/14 00:31:32;;;;;;;12.40;9.63;;;;;;;7.23;100.00;100800.94;4805850;29;20050;-66
2023/12/14 00:34:20;;;;;;;12.27;10.00;;;;;;;7.29;100.00;100809.16;4804947;29;20489;-66
2023/12/14 00:37:08;;;;;;;10.82;8.52;;;;;;;7.27;100.00;100814.00;4804302;29;20098;-66
2023/12/14 00:39:56;;;;;;;11.30;8.95;;;;;;;7.15;100.00;100831.16;4804604;29;20050;-67
2023/12/14 00:42:44;;;;;;;11.30;8.75;;;;;;;7.10;100.00;100832.97;4804157;29;20050;-66
2023/12/14 00:45:32;;;;;;;11.85;9.05;;;;;;;6.95;100.00;100838.91;4805020;29;20092;-66
2023/12/14 00:48:20;;;;;;;11.80;9.32;;;;;;;7.05;100.00;100849.97;4806444;29;20512;-65
2023/12/14 00:51:08;;;;;;;14.15;10.35;;;;;;;7.06;100.00;100854.28;4802445;29;20386;-66
2023/12/14 00:53:56;;;;;;;12.80;9.20;;;;;;;6.99;100.00;100864.47;4805830;29;20531;-65
2023/12/14 00:56:44;;;;;;;11.55;9.18;;;;;;;7.02;100.00;100863.97;4809246;29;20497;-65
2023/12/14 00:59:32;;;;;;;11.68;9.15;;;;;;;7.07;100.00;100863.25;4819180;29;20118;-64
2023/12/14 01:02:20;;;;;;;13.13;9.77;;;;;;;7.03;100.00;100871.03;4823657;29;20057;-65
2023/12/14 01:05:08;;;;;;;10.63;8.32;;;;;;;6.95;100.00;100866.84;4811123;29;20055;-67
2023/12/14 01:07:56;;;;;;;13.95;9.55;;;;;;;6.85;100.00;100868.53;4824307;29;20050;-64
2023/12/14 01:10:44;;;;;;;13.43;9.60;;;;;;;6.84;100.00;100883.97;4819514;29;20069;-62
2023/12/14 01:13:32;;;;;;;11.65;8.38;;;;;;;6.76;100.00;100887.06;4801566;30;20063;-65
2023/12/14 01:16:20;;;;;;;11.77;8.88;;;;;;;6.70;100.00;100883.41;4805195;29;20051;-66
2023/12/14 01:19:08;;;;;;;12.70;9.45;;;;;;;6.64;100.00;100881.69;4789189;30;20113;-66
2023/12/14 01:21:56;;;;;;;12.55;8.65;;;;;;;6.64;100.00;100892.53;4795447;29;20069;-65
2023/12/14 01:24:44;;;;;;;11.75;8.77;;;;;;;6.73;100.00;100898.34;4807886;29;20055;-65
2023/12/14 01:27:33;;;;;;;13.15;9.50;;;;;;;6.65;100.00;100907.69;4805958;29;20046;-66
2023/12/14 01:30:21;;;;;;;11.88;8.93;;;;;;;6.60;100.00;100908.41;4806727;29;20054;-67
2023/12/14 01:33:09;;;;;;;12.15;9.07;;;;;;;6.63;100.00;100917.94;4799472;29;20062;-67
2023/12/14 01:35:57;;;;;;;12.43;8.55;;;;;;;6.65;100.00;100918.50;4807635;29;20417;-65
2023/12/14 01:38:45;;;;;;;12.45;8.90;;;;;;;6.71;100.00;100928.41;4806829;29;20047;-66
2023/12/14 01:41:33;;;;;;;11.52;8.50;;;;;;;6.83;100.00;100940.03;4808398;29;20055;-66
2023/12/14 01:44:21;;;;;;;13.65;10.18;;;;;;;6.85;100.00;100939.75;4807457;29;20138;-65
2023/12/14 01:47:09;;;;;;;13.45;9.73;;;;;;;6.80;100.00;100945.91;4790134;30;20060;-65
2023/12/14 01:49:57;;;;;;;13.63;9.73;;;;;;;6.66;100.00;100947.22;4789657;30;20067;-66
2023/12/14 01:52:45;;;;;;;18.30;10.95;;;;;;;6.55;100.00;100951.63;4789590;30;20062;-65
2023/12/14 01:55:33;;;;;;;14.88;10.70;;;;;;;6.57;100.00;100959.50;4791595;29;20056;-66
2023/12/14 01:58:21;;;;;;;14.07;9.88;;;;;;;6.63;100.00;100963.13;4801050;29;20051;-66
2023/12/14 02:01:19;;;;;;;13.63;10.02;;;;;;;6.65;100.00;100972.66;4794537;29;20057;-66
2023/12/14 02:04:07;;;;;;;15.35;10.38;;;;;;;6.71;100.00;100985.25;4806635;29;20047;-67
2023/12/14 02:06:56;;;;;;;17.73;10.73;;;;;;;6.66;100.00;100985.13;4792833;29;20047;-66
2023/12/14 02:09:43;;;;;;;17.35;11.52;;;;;;;6.66;100.00;100979.72;4806231;29;20059;-65
2023/12/14 02:12:33;;;;;;;14.73;9.70;;;;;;;6.72;100.00;100991.50;4789550;30;20043;-65
2023/12/14 02:15:21;;;;;;;15.75;10.23;;;;;;;6.79;100.00;100995.72;4794782;29;20138;-66
2023/12/14 02:18:09;;;;;;;16.45;11.00;;;;;;;6.77;100.00;100997.03;4806171;29;20308;-65
2023/12/14 02:20:57;;;;;;;18.10;11.30;;;;;;;6.74;100.00;100995.63;4807292;29;20125;-66
2023/12/14 02:23:46;;;;;;;16.73;10.75;;;;;;;6.73;100.00;101012.91;4806716;29;20428;-66
2023/12/14 02:26:34;;;;;;;16.85;10.75;;;;;;;6.70;100.00;101018.81;4803737;29;20057;-66
2023/12/14 02:29:22;;;;;;;16.75;11.00;;;;;;;6.67;100.00;101016.56;4805436;29;20121;-66
2023/12/14 02:32:10;;;;;;;17.52;11.15;;;;;;;6.67;100.00;101030.13;4806485;29;20065;-67
2023/12/14 02:34:58;;;;;;;16.27;11.63;;;;;;;6.64;100.00;101035.16;4804756;29;20536;-66
2023/12/14 02:37:46;;;;;;;16.92;11.20;;;;;;;6.61;100.00;101048.13;4788398;30;20134;-67
2023/12/14 02:40:34;;;;;;;14.82;10.85;;;;;;;6.55;100.00;101035.53;4795792;29;20440;-67
2023/12/14 02:43:23;;;;;;;16.10;10.57;;;;;;;6.53;100.00;101036.84;4803198;29;20497;-67
2023/12/14 02:46:15;;;;;;;14.95;9.48;;;;;;;6.54;100.00;101046.59;4804405;29;20047;-66
2023/12/14 02:49:03;;;;;;;14.15;10.27;;;;;;;6.54;100.00;101052.00;4805027;29;20284;-67
2023/12/14 02:51:51;;;;;;;14.18;9.77;;;;;;;6.51;100.00;101057.91;4803644;29;20058;-67
2023/12/14 02:54:40;;;;;;;13.80;9.52;;;;;;;6.45;100.00;101058.84;4806547;29;20111;-67
2023/12/14 02:57:27;;;;;;;13.60;9.98;;;;;;;6.50;100.00;101067.91;4788150;29;20063;-67
2023/12/14 03:00:16;;;;;;;12.70;8.73;;;;;;;6.56;100.00;101072.34;4788026;30;20077;-65
2023/12/14 03:03:04;;;;;;;12.20;8.80;;;;;;;6.59;100.00;101077.31;4796754;29;20085;-66
2023/12/14 03:05:52;;;;;;;11.50;8.30;;;;;;;6.53;100.00;101077.44;4806809;29;20141;-65
2023/12/14 03:08:40;;;;;;;12.68;8.82;;;;;;;6.49;100.00;101087.06;4805476;29;20139;-66
2023/12/14 03:11:28;;;;;;;11.57;8.35;;;;;;;6.30;100.00;101087.19;4804102;29;20055;-66
2023/12/14 03:14:15;;;;;;;11.73;8.48;;;;;;;6.26;100.00;101096.81;4807261;29;20464;-67
2023/12/14 03:17:05;;;;;;;12.80;8.55;;;;;;;6.34;100.00;101093.75;4787567;29;20047;-65
2023/12/14 03:19:53;;;;;;;11.98;8.65;;;;;;;6.45;100.00;101096.75;4786104;29;20059;-65
2023/12/14 03:22:41;;;;;;;12.07;8.80;;;;;;;6.52;100.00;101103.69;4803355;29;20089;-66
2023/12/14 03:25:29;;;;;;;13.05;9.75;;;;;;;6.53;100.00;101105.31;4793372;29;20428;-65
2023/12/14 03:28:17;;;;;;;13.82;9.23;;;;;;;6.51;100.00;101112.03;4803868;29;20063;-66
2023/12/14 03:31:05;;;;;;;12.30;8.95;;;;;;;6.55;100.00;101107.81;4804312;29;20054;-66
2023/12/14 03:33:53;;;;;;;11.93;8.88;;;;;;;6.58;100.00;101107.34;4806711;29;20054;-66
2023/12/14 03:36:41;;;;;;;13.60;9.40;;;;;;;6.57;100.00;101113.81;4805497;29;20439;-66
2023/12/14 03:39:29;;;;;;;14.90;10.30;;;;;;;6.51;100.00;101110.16;4816831;29;20061;-66
2023/12/14 03:42:17;;;;;;;13.57;10.00;;;;;;;6.50;100.00;101113.09;4805418;29;20134;-66
2023/12/14 03:45:06;;;;;;;13.68;9.57;;;;;;;6.51;100.00;101117.44;4804620;29;20054;-67
2023/12/14 03:47:53;;;;;;;11.48;8.65;;;;;;;6.53;100.00;101120.75;4804631;29;20050;-65
2023/12/14 03:50:42;;;;;;;12.88;9.10;;;;;;;6.35;100.00;101124.34;4803619;29;20496;-66
2023/12/14 03:53:30;;;;;;;10.95;8.48;;;;;;;6.24;100.00;101128.69;4805201;29;20135;-66
2023/12/14 03:56:18;;;;;;;11.50;8.50;;;;;;;6.17;100.00;101133.38;4806346;29;20055;-66
2023/12/14 03:59:07;;;;;;;11.63;8.77;;;;;;;6.22;100.00;101130.81;4806554;29;20058;-66
2023/12/14 04:01:55;;;;;;;12.55;8.95;;;;;;;6.26;100.00;101142.00;4800967;29;20489;-66
2023/12/14 04:04:43;;;;;;;12.40;8.60;;;;;;;6.30;100.00;101146.72;4803955;29;20138;-66
2023/12/14 04:07:31;;;;;;;12.52;8.52;;;;;;;6.33;100.00;101148.97;4804553;29;20081;-64
2023/12/14 04:10:19;;;;;;;11.95;8.90;;;;;;;6.39;100.00;101153.44;4806203;29;20501;-66
2023/12/14 04:13:07;;;;;;;12.88;9.05;;;;;;;6.43;100.00;101150.28;4792897;29;20093;-65
2023/12/14 04:15:55;;;;;;;11.48;8.73;;;;;;;6.41;100.00;101150.50;4806452;29;20054;-65
2023/12/14 04:18:43;;;;;;;11.75;7.95;;;;;;;6.33;100.00;101156.25;4779556;29;20054;-65
2023/12/14 04:21:31;;;;;;;10.80;8.38;;;;;;;6.32;100.00;101155.41;4804029;29;20147;-66
2023/12/14 04:24:19;;;;;;;11.73;8.35;;;;;;;6.27;100.00;101149.06;4787342;30;20105;-65
2023/12/14 04:27:07;;;;;;;10.82;8.05;;;;;;;6.29;100.00;101155.06;4786966;30;20133;-66
2023/12/14 04:29:55;;;;;;;11.25;8.25;;;;;;;6.21;100.00;101166.22;4774356;30;20051;-67
2023/12/14 04:32:43;;;;;;;10.88;8.38;;;;;;;6.05;100.00;101168.50;4804814;29;20103;-65
2023/12/14 04:35:36;;;;;;;13.90;8.50;;;;;;;6.06;100.00;101172.03;4806131;29;20063;-66
2023/12/14 04:38:24;;;;;;;10.98;8.05;;;;;;;6.09;100.00;101193.25;4791661;29;20560;-66
2023/12/14 04:41:12;;;;;;;10.15;7.75;;;;;;;6.17;100.00;101198.31;4805169;29;20538;-67
2023/12/14 04:44:00;;;;;;;9.88;7.60;;;;;;;6.24;100.00;101203.63;4804042;29;20055;-65
2023/12/14 04:46:49;;;;;;;11.52;7.90;;;;;;;6.24;100.00;101209.88;4792377;29;20101;-65
2023/12/14 04:49:37;;;;;;;10.35;7.95;;;;;;;6.30;100.00;101225.19;4806020;29;20088;-65
2023/12/14 04:52:25;;;;;;;10.52;7.57;;;;;;;6.32;100.00;101220.34;4804710;29;20059;-66
2023/12/14 04:55:13;;;;;;;11.43;7.15;;;;;;;6.28;100.00;101231.91;4788998;29;20163;-65
2023/12/14 04:58:01;;;;;;;9.82;7.68;;;;;;;6.24;100.00;101236.09;4791850;29;20058;-65
2023/12/14 05:00:49;;;;;;;10.27;7.93;;;;;;;6.19;100.00;101242.19;4790386;29;20454;-64
2023/12/14 05:03:37;;;;;;;10.77;7.88;;;;;;;6.04;100.00;101241.75;4808424;29;20046;-65
2023/12/14 05:06:25;;;;;;;10.48;7.93;;;;;;;5.95;100.00;101239.38;4807792;29;20393;-65
2023/12/14 05:09:13;;;;;;;11.73;8.38;;;;;;;6.05;100.00;101254.25;4805916;29;20061;-65
2023/12/14 05:12:02;;;;;;;10.48;7.90;;;;;;;6.01;100.00;101261.16;4811945;29;20058;-64
2023/12/14 05:14:50;;;;;;;10.45;8.45;;;;;;;6.10;100.00;101262.50;4811987;29;20069;-65
2023/12/14 05:17:38;;;;;;;11.57;8.32;;;;;;;6.23;100.00;101261.50;4816161;29;20501;-65
2023/12/14 05:20:26;;;;;;;14.40;9.55;;;;;;;6.24;100.00;101274.00;4821277;29;20134;-63
2023/12/14 05:23:14;;;;;;;12.48;9.27;;;;;;;6.19;100.00;101285.50;4801489;29;20477;-64
2023/12/14 05:26:02;;;;;;;13.00;9.80;;;;;;;6.12;100.00;101282.88;4799991;29;20055;-66
2023/12/14 05:28:50;;;;;;;13.40;10.15;;;;;;;5.94;100.00;101294.53;4804365;29;20152;-65
2023/12/14 05:31:39;;;;;;;12.25;9.38;;;;;;;5.81;100.00;101302.75;4786582;30;20189;-66
2023/12/14 05:34:26;;;;;;;11.70;9.48;;;;;;;5.85;100.00;101300.44;4781636;29;20062;-66
2023/12/14 05:37:15;;;;;;;12.07;9.40;;;;;;;5.98;100.00;101303.81;4805992;29;20054;-66
2023/12/14 05:40:03;;;;;;;13.27;9.60;;;;;;;6.13;100.00;101317.00;4789653;29;20129;-66
2023/12/14 05:42:51;;;;;;;11.82;9.50;;;;;;;6.17;100.00;101322.78;4805097;29;20063;-66
2023/12/14 05:45:39;;;;;;;12.15;9.25;;;;;;;6.28;100.00;101323.91;4794490;29;20059;-65
2023/12/14 05:48:28;;;;;;;13.23;10.13;;;;;;;6.32;100.00;101336.72;4808463;29;20059;-66
2023/12/14 05:51:32;;;;;;;13.07;9.10;;;;;;;6.34;100.00;101339.22;4806799;29;20046;-67
2023/12/14 05:54:20;;;;;;;11.88;9.38;;;;;;;6.37;100.00;101344.16;4794849;29;20753;-66
2023/12/14 05:57:08;;;;;;;13.20;10.02;;;;;;;6.33;100.00;101362.75;4809127;29;20047;-66
2023/12/14 06:00:12;;;;;;;11.65;9.25;;;;;;;6.30;100.00;101375.91;4584662;29;10001022;-67
2023/12/14 06:03:00;;;;;;;13.07;9.50;;;;;;;6.30;100.00;101384.88;4803630;29;20300;-67
2023/12/14 06:05:48;;;;;;;12.57;9.10;;;;;;;6.32;100.00;101381.91;4803701;29;20093;-67
2023/12/14 06:08:36;;;;;;;12.95;9.45;;;;;;;6.32;100.00;101385.44;4777512;29;20057;-66
2023/12/14 06:11:24;;;;;;;11.02;9.18;;;;;;;6.30;100.00;101397.53;4803205;29;20067;-66
2023/12/14 06:14:12;;;;;;;12.02;8.90;;;;;;;6.22;100.00;101395.97;4803795;29;20074;-65
2023/12/14 06:17:00;;;;;;;12.38;9.57;;;;;;;6.19;100.00;101391.84;4794616;30;20048;-65
2023/12/14 06:19:48;;;;;;;15.75;9.65;;;;;;;6.07;100.00;101399.03;4797293;29;20046;-66
2023/12/14 06:22:40;;;;;;;12.95;9.63;;;;;;;5.98;100.00;101395.78;4790652;29;20058;-66
2023/12/14 06:25:28;;;;;;;11.77;9.30;;;;;;;6.04;100.00;101395.94;4790122;29;20416;-66
2023/12/14 06:28:16;;;;;;;12.27;9.32;;;;;;;6.07;100.00;101399.03;4803576;29;20125;-66
2023/12/14 06:31:04;;;;;;;13.63;9.30;;;;;;;6.10;100.00;101414.00;4790000;29;20126;-66
2023/12/14 06:33:52;;;;;;;11.20;8.93;;;;;;;6.14;100.00;101417.94;4803995;29;20126;-65
2023/12/14 06:36:44;;;;;;;12.50;9.23;;;;;;;6.02;100.00;101422.41;4786305;30;20070;-66
2023/12/14 06:39:32;;;;;;;11.02;8.57;;;;;;;6.02;100.00;101433.25;4775475;29;20162;-65
2023/12/14 06:42:21;;;;;;;11.70;8.48;;;;;;;6.08;100.00;101440.44;4779618;29;20078;-66
2023/12/14 06:45:10;;;;;;;14.98;9.57;;;;;;;6.11;100.00;101442.69;4803115;29;20055;-66
2023/12/14 06:47:58;;;;;;;13.73;9.50;;;;;;;6.08;100.00;101443.16;4802332;29;20047;-65
2023/12/14 06:50:46;;;;;;;13.32;8.95;;;;;;;6.09;100.00;101444.81;4788707;29;20372;-65
2023/12/14 06:53:39;;;;;;;11.70;9.00;;;;;;;6.13;100.00;101441.44;4803027;29;20539;-65
2023/12/14 06:56:27;;;;;;;12.23;9.32;;;;;;;6.21;100.00;101442.22;4790569;29;20051;-66
2023/12/14 06:59:15;;;;;;;13.77;9.20;;;;;;;6.14;100.00;101450.38;4776647;29;20099;-66
2023/12/14 07:02:03;;;;;;;11.60;8.75;;;;;;;6.15;100.00;101455.56;4801487;29;20051;-65
2023/12/14 07:04:51;;;;;;;11.73;8.93;;;;;;;6.17;100.00;101466.16;4804052;29;20050;-66
2023/12/14 07:07:40;;;;;;;12.23;9.13;;;;;;;6.19;100.00;101467.59;4788436;29;20055;-66
2023/12/14 07:10:28;;;;;;;11.60;9.60;;;;;;;6.23;100.00;101473.41;4789250;29;20051;-67
2023/12/14 07:13:16;;;;;;;13.73;9.23;;;;;;;6.22;100.00;101470.91;4799500;29;20062;-67
2023/12/14 07:16:07;;;;;;;12.10;9.00;;;;;;;6.20;100.00;101479.25;4802740;29;20134;-66
2023/12/14 07:18:56;;;;;;;11.35;8.23;;;;;;;6.21;100.00;101483.63;4777933;29;20051;-66
2023/12/14 07:21:44;;;;;;;11.43;8.52;;;;;;;6.22;100.00;101489.84;4788878;29;20547;-65
2023/12/14 07:24:33;;;;;;;11.02;8.18;;;;;;;6.21;100.00;101497.16;4779972;29;20471;-65
2023/12/14 07:27:35;;;;;;;12.05;8.73;;;;;;;6.24;100.00;101506.69;4791172;29;20050;-66
2023/12/14 07:30:23;;;;;;;11.10;8.25;;;;;;;6.23;100.00;101515.84;4791604;29;20047;-66
2023/12/14 07:33:11;;;;;;;13.50;8.85;;;;;;;6.14;100.00;101529.69;4791183;29;20104;-66
2023/12/14 07:35:59;;;;;;;11.55;8.32;;;;;;;6.05;100.00;101527.47;4788896;29;20062;-66
2023/12/14 07:38:47;;;;;;;12.80;8.63;;;;;;;6.06;100.00;101532.66;4804509;29;20101;-66
2023/12/14 07:41:37;;;;;;;15.93;8.00;;;;;;;6.05;100.00;101541.00;4776496;29;20047;-65
2023/12/14 07:44:26;;;;;;;11.80;8.05;;;;;;;6.06;100.00;101539.94;4803964;29;20158;-66
2023/12/14 07:47:14;;;;;;;11.10;7.75;;;;;;;6.09;100.00;101553.03;4750138;30;20062;-67
2023/12/14 07:50:02;;;;;;;11.85;8.23;;;;;;;6.08;100.00;101543.25;4783312;30;20440;-67
2023/12/14 07:52:50;;;;;;;12.85;8.38;;;;;;;6.09;100.00;101553.03;4773185;29;20570;-66
2023/12/14 07:55:38;;;;;;;13.50;8.65;;;;;;;6.11;100.00;101559.88;4795895;29;20047;-66
2023/12/14 07:58:26;;;;;;;12.20;8.02;;;;;;;6.15;100.00;101557.56;4803378;29;20515;-66
2023/12/14 08:01:15;;;;;;;14.43;8.63;;;;;;;6.14;100.00;101566.72;4802585;29;20055;-66
2023/12/14 08:04:03;;;;;;;13.30;7.72;;;;;;;6.03;100.00;101575.53;4800767;29;20404;-66
2023/12/14 08:06:51;;;;;;;12.52;7.50;;;;;;;6.01;100.00;101573.06;4785951;29;20055;-66
2023/12/14 08:09:39;;;;;;;11.50;7.28;;;;;;;6.08;100.00;101579.25;4805451;29;20103;-66
2023/12/14 08:12:27;;;;;;;13.52;8.35;;;;;;;6.10;100.00;101581.75;4808923;29;20110;-66
2023/12/14 08:15:16;;;;;;;13.75;8.45;;;;;;;6.09;100.00;101580.91;4793754;29;20141;-67
2023/12/14 08:18:04;;;;;;;14.05;7.57;;;;;;;6.06;100.00;101592.19;4805913;29;20051;-67
2023/12/14 08:20:55;;;;;;;13.05;7.85;;;;;;;6.04;100.00;101596.13;4804796;29;20131;-66
2023/12/14 08:23:43;;;;;;;12.48;7.68;;;;;;;6.04;100.00;101596.13;4781739;29;20085;-66
2023/12/14 08:26:31;;;;;;;10.48;6.63;;;;;;;6.01;100.00;101615.50;4804811;29;20043;-67
2023/12/14 08:29:19;;;;;;;10.68;7.10;;;;;;;5.95;100.00;101609.09;4806555;29;20053;-67
2023/12/14 08:32:07;;;;;;;11.82;7.20;;;;;;;5.88;100.00;101619.09;4791306;29;20058;-67
2023/12/14 08:34:55;;;;;;;10.52;7.07;;;;;;;5.79;100.00;101618.50;4804342;29;20043;-65
2023/12/14 08:37:43;;;;;;;10.20;7.00;;;;;;;5.86;100.00;101626.59;4802553;29;20047;-65
2023/12/14 08:40:32;;;;;;;11.95;7.45;;;;;;;5.79;100.00;101632.03;4804468;29;20050;-65
2023/12/14 08:43:20;;;;;;;11.15;7.55;;;;;;;5.75;100.00;101644.34;4804987;29;20055;-66
2023/12/14 08:46:08;;;;;;;11.45;7.72;;;;;;;5.71;100.00;101635.00;4791377;29;20099;-65
2023/12/14 08:48:56;;;;;;;11.10;7.45;;;;;;;5.73;100.00;101643.72;4792910;29;20099;-65
2023/12/14 08:51:44;;;;;;;11.88;6.68;;;;;;;5.83;100.00;101646.78;4806128;29;20054;-66
2023/12/14 08:54:32;;;;;;;11.15;7.80;;;;;;;5.85;100.00;101669.03;4805662;29;20141;-66
2023/12/14 08:57:20;;;;;;;12.57;8.02;;;;;;;5.73;100.00;101670.78;4805125;29;20082;-66
2023/12/14 09:00:08;;;;;;;11.23;7.35;;;;;;;5.70;100.00;101679.28;4791618;29;20051;-65
2023/12/14 09:02:56;;;;;;;10.85;7.35;;;;;;;5.72;100.00;101685.31;4787451;30;20471;-66
2023/12/14 09:05:45;;;;;;;12.00;7.63;;;;;;;5.75;100.00;101671.38;4775545;29;20063;-66
2023/12/14 09:08:33;;;;;;;10.35;7.57;;;;;;;5.76;100.00;101675.75;4773977;30;20134;-66
2023/12/14 09:11:21;;;;;;;11.07;7.57;;;;;;;5.81;100.00;101675.91;4774824;30;20093;-65
2023/12/14 09:14:09;;;;;;;11.05;6.85;;;;;;;5.89;100.00;101682.94;4789155;29;20501;-67
2023/12/14 09:16:57;;;;;;;9.90;7.15;;;;;;;5.73;100.00;101684.28;4775844;29;20070;-65
2023/12/14 09:19:45;;;;;;;10.43;7.05;;;;;;;5.68;100.00;101697.63;4815513;29;20054;-65
2023/12/14 09:22:33;;;;;;;12.15;7.40;;;;;;;5.76;100.00;101706.31;4807426;29;20069;-62
2023/12/14 09:25:22;;;;;;;11.00;7.07;;;;;;;5.80;100.00;101712.13;4811695;29;20583;-66
2023/12/14 09:28:10;;;;;;;10.10;6.95;;;;;;;5.79;100.00;101715.88;4798863;29;20534;-65
2023/12/14 09:30:57;;;;;;;12.10;6.80;;;;;;;5.72;100.00;101720.47;4823855;29;20058;-64
2023/12/14 09:33:46;;;;;;;10.38;7.30;;;;;;;5.73;100.00;101728.38;4796527;29;20063;-65
2023/12/14 09:36:34;;;;;;;10.82;6.88;;;;;;;5.76;100.00;101732.53;4795750;29;20066;-67
2023/12/14 09:39:23;;;;;;;29.73;10.15;;;;;;;5.79;100.00;101733.97;4796492;29;20086;-65
2023/12/14 09:42:11;;;;;;;12.23;7.03;;;;;;;5.92;100.00;101742.88;4805802;29;20126;-66
2023/12/14 09:44:59;;;;;;;9.02;6.78;;;;;;;5.94;100.00;101738.13;4797397;29;20050;-66
2023/12/14 09:47:47;;;;;;;11.00;6.63;;;;;;;5.96;100.00;101746.00;4801780;29;20129;-65
2023/12/14 09:50:35;;;;;;;12.38;6.78;;;;;;;6.00;100.00;101751.81;4812908;29;20050;-67
2023/12/14 09:53:23;;;;;;;10.40;7.22;;;;;;;5.93;100.00;101760.75;4796402;29;20053;-64
2023/12/14 09:56:11;;;;;;;9.88;6.95;;;;;;;5.85;100.00;101762.88;4807828;29;20151;-65
2023/12/14 09:59:01;;;;;;;10.32;6.75;;;;;;;5.80;100.00;101768.06;4795027;29;20062;-65
2023/12/14 10:01:49;;;;;;;9.93;6.97;;;;;;;5.83;100.00;101773.91;4792928;29;20051;-66
2023/12/14 10:04:37;;;;;;;9.85;6.63;;;;;;;5.89;100.00;101785.72;4805991;29;20135;-66
2023/12/14 10:07:25;;;;;;;10.43;6.93;;;;;;;5.89;100.00;101792.00;4795017;29;20051;-67
2023/12/14 10:10:15;;;;;;;11.00;6.57;;;;;;;5.84;100.00;101790.94;4807098;29;20062;-66
2023/12/14 10:13:03;;;;;;;9.13;6.55;;;;;;;5.85;100.00;101796.16;4803927;29;20416;-66
2023/12/14 10:15:51;;;;;;;11.73;7.15;;;;;;;5.72;100.00;101802.44;4791649;29;20108;-67
2023/12/14 10:18:39;;;;;;;9.88;7.35;;;;;;;5.67;100.00;101814.91;4789824;30;20058;-66
2023/12/14 10:21:28;;;;;;;9.98;6.90;;;;;;;5.62;100.00;101812.84;4791077;29;20058;-66
2023/12/14 10:24:17;;;;;;;9.25;6.60;;;;;;;5.64;100.00;101815.34;4806907;29;20539;-65
2023/12/14 10:27:07;;;;;;;8.85;6.45;;;;;;;5.71;100.00;101819.69;4808349;29;20124;-66
2023/12/14 10:29:56;;;;;;;10.05;6.88;;;;;;;5.63;100.00;101819.91;4790123;29;20235;-66
2023/12/14 10:32:48;;;;;;;9.98;6.85;;;;;;;5.62;100.00;101823.66;4805438;29;20173;-64
2023/12/14 10:35:36;;;;;;;10.13;6.88;;;;;;;5.63;100.00;101828.03;4806950;29;20059;-67
2023/12/14 10:38:25;;;;;;;9.77;6.60;;;;;;;5.67;100.00;101831.13;4795402;29;20043;-65
2023/12/14 10:41:14;;;;;;;8.77;6.20;;;;;;;5.67;100.00;101831.13;4806803;29;20054;-66
2023/12/14 10:44:02;;;;;;;11.52;6.30;;;;;;;5.73;100.00;101830.31;4805484;29;20058;-66
2023/12/14 10:47:10;;;;;;;10.07;6.70;;;;;;;5.78;100.00;101833.19;4805709;29;20046;-66
2023/12/14 10:50:01;;;;;;;10.20;6.25;;;;;;;5.82;100.00;101833.59;4818743;29;20058;-67
2023/12/14 10:52:50;;;;;;;9.57;6.75;;;;;;;5.88;100.00;101828.19;4801131;29;20693;-66
2023/12/14 10:55:44;;;;;;;9.43;6.53;;;;;;;5.90;100.00;101831.50;4795163;29;20528;-67
2023/12/14 10:58:52;;;;;;;8.88;6.47;;;;;;;5.83;100.00;101829.88;4805472;29;20059;-66
2023/12/14 11:01:40;;;;;;;9.98;7.20;;;;;;;5.78;100.00;101838.63;4805143;29;20058;-65
2023/12/14 11:04:29;;;;;;;10.48;7.50;;;;;;;5.71;100.00;101843.19;4798311;29;20519;-67
2023/12/14 11:07:17;;;;;;;9.57;6.97;;;;;;;5.66;100.00;101843.00;4802155;29;20051;-67
2023/12/14 11:10:06;;;;;;;11.88;7.18;;;;;;;5.68;100.00;101838.22;4806108;29;20385;-66
2023/12/14 11:13:01;;;;;;;10.70;7.15;;;;;;;5.73;100.00;101847.34;4806372;29;20573;-66
2023/12/14 11:15:51;;;;;;;8.93;6.40;;;;;;;5.76;100.00;101849.63;4792996;29;20070;-67
2023/12/14 11:18:39;;;;;;;11.10;6.82;;;;;;;5.80;100.00;101858.16;4805534;29;20065;-67
2023/12/14 11:21:28;;;;;;;9.95;7.00;;;;;;;5.81;100.00;101857.13;4807391;29;20061;-66
2023/12/14 11:24:16;;;;;;;11.05;6.95;;;;;;;5.80;100.00;101858.16;4793304;29;20059;-66
2023/12/14 11:27:07;;;;;;;10.65;7.30;;;;;;;5.82;100.00;101857.94;4793144;29;20106;-67
2023/12/14 11:29:57;;;;;;;9.38;6.72;;;;;;;5.81;100.00;101870.63;4792803;29;20133;-66
2023/12/14 11:32:45;;;;;;;10.73;6.50;;;;;;;5.79;100.00;101867.31;4793364;29;20062;-63
2023/12/14 11:35:33;;;;;;;9.98;6.55;;;;;;;5.82;100.00;101875.03;4807035;29;20101;-66
2023/12/14 11:38:23;;;;;;;10.13;7.07;;;;;;;5.80;100.00;101879.81;4806350;29;20508;-65
2023/12/14 11:41:11;;;;;;;10.60;6.60;;;;;;;5.82;100.00;101885.84;4787462;29;20047;-67
2023/12/14 11:43:59;;;;;;;9.30;6.70;;;;;;;5.84;100.00;101891.00;4787939;30;20146;-65
2023/12/14 11:46:47;;;;;;;9.55;6.82;;;;;;;5.86;100.00;101895.16;4787550;30;20051;-66
2023/12/14 11:49:36;;;;;;;9.63;7.10;;;;;;;5.88;100.00;101887.69;4806993;29;20047;-67
2023/12/14 11:52:24;;;;;;;10.27;7.07;;;;;;;5.89;100.00;101885.81;4792382;29;20047;-66
2023/12/14 11:55:12;;;;;;;13.20;7.20;;;;;;;5.92;100.00;101886.22;4779671;29;20050;-66
2023/12/14 11:58:01;;;;;;;10.90;7.82;;;;;;;5.91;100.00;101884.53;4779911;29;20051;-66
2023/12/14 12:00:49;;;;;;;11.27;7.35;;;;;;;5.93;100.00;101879.75;4805770;29;20412;-64
2023/12/14 12:03:36;;;;;;;10.65;7.50;;;;;;;5.93;100.00;101879.75;4793803;29;20482;-64
2023/12/14 12:06:27;;;;;;;10.88;7.85;;;;;;;5.97;100.00;101883.75;4786793;29;20054;-64
2023/12/14 12:09:42;;;;;;;12.50;8.13;;;;;;;6.03;100.00;101890.19;4775270;30;20452;-64
2023/12/14 12:12:34;;;;;;;12.25;7.97;;;;;;;6.06;100.00;101883.50;4784582;29;20519;-66
2023/12/14 12:15:24;;;;;;;11.77;8.45;;;;;;;6.09;100.00;101883.13;4805603;29;20432;-66
2023/12/14 12:18:14;;;;;;;11.77;8.48;;;;;;;6.13;100.00;101890.59;4817634;29;20066;-66
2023/12/14 12:21:06;;;;;;;10.93;7.88;;;;;;;6.15;100.00;101888.47;4805732;29;20053;-66
2023/12/14 12:23:54;;;;;;;10.82;7.75;;;;;;;6.14;100.00;101880.59;4806648;29;20074;-67
2023/12/14 12:26:42;;;;;;;10.70;7.65;;;;;;;6.15;100.00;101885.78;4804806;29;20042;-65
2023/12/14 12:29:30;;;;;;;11.35;7.72;;;;;;;6.15;100.00;101895.78;4818043;29;20051;-67
2023/12/14 12:32:18;;;;;;;11.60;7.65;;;;;;;6.11;100.00;101903.50;4806759;29;20075;-65
2023/12/14 12:35:07;;;;;;;10.25;7.10;;;;;;;6.11;100.00;101894.53;4818250;29;20057;-66
2023/12/14 12:37:55;;;;;;;10.70;7.28;;;;;;;6.11;100.00;101908.06;4807491;29;20047;-65
2023/12/14 12:40:43;;;;;;;11.38;7.18;;;;;;;6.10;100.00;101899.13;4807566;29;20050;-65
2023/12/14 12:43:31;;;;;;;10.65;7.32;;;;;;;6.02;100.00;101909.34;4807494;29;20050;-66
2023/12/14 12:46:19;;;;;;;12.70;8.45;;;;;;;5.98;100.00;101909.75;4804832;29;20143;-66
2023/12/14 12:49:07;;;;;;;11.75;8.10;;;;;;;5.96;100.00;101922.69;4805092;29;20075;-67
2023/12/14 12:51:55;;;;;;;12.68;7.90;;;;;;;5.94;100.00;101927.47;4806393;29;20051;-66
2023/12/14 12:54:43;;;;;;;12.02;8.50;;;;;;;5.92;100.00;101937.63;4806625;29;20587;-66